Stuttgart Airport

EDDS · 巴登-符腾堡, 德国

罗盘
风向 的 Stuttgart Airport 7/25
风: 1 kt, 1 beaufort


1 kt
改变
0 1.000 2.000 3.000 4.000 5.000
FEW 200 ft
SPECI EDDS 270020Z AUTO VRB01KT 0350 0250 R25/0400N FZFG FEW002 M00/M00 Q1029

METAR Stuttgart Airport - EDDS/STR

Stuttgart Airport是,德国中的大型机场。 该机场有一条跑道: 7/25. 该领域的国际民航组织标志是EDDS 它的国际航空运输协会代码是STR.

这份报告是针对2022年11月27日 01:20, 当地时间在Stuttgart Airport进行的。

机场观察

可变方向的风很小或没有风。

可见度为250 m。 跑道25的能见度为400 m 和 没有趋势。

有几云在200 ft的高度。 没有观察到天花板。

当前天气为冷冻 多雾路段。 温度和风寒是0 °C。 海平面上的气压为1029 hPa (QNH)。

白天

今天,太阳从07:49升起,在16:32降落。 这适用于Stuttgart Airport,世界夏令时可能有所不同。 当地时间与世界标准时间之间的时差为+1 小时。 当前,没有夏令时有效。

公司介绍

在这个机场,你可以找到飞行学校。 本场上唯一已知的公司是Flugbetrieb Aero Beta。

体会

到Vliegles.nl去找飞行课程,跳伞和其他飞行体验。 浏览页面,了解Stuttgart Airport附近所有可用的活动。 你也可以使用搜索功能来寻找你所在地附近的特定飞行课程、跳伞或其他飞行体验。

警示语

跑道25处的能见度为400 m 和 没有趋势。

跑道

Id 标题 侧风 逆风 侧风 %
7/25 072°-252° 95 %

逆风成分最大的方向会被突出显示,并用于横风计算。 这并不一定意味着这个方向在使用。

乌云

200 ft FEW 几云

温度 & 天气

天气 冷冻 多雾路段
温度 0 °C
露点 0 °C
相对湿度 100%
Kp-index 2 (0-9)

白天

日出
07:49 (5:44)
中午
12:10
日落
16:32

小工具

你想在你的网站上有一个关于Stuttgart Airport的当前航空天气(METAR)的小部件吗?

显示HTML代码

我们和第三方通过cookies跟踪您在我们网站上的互联网行为。如果你继续,我们认为你同意我们的饼干政策